This is the latest recevied weather packets stored in our database for station/object EA7AVH-10. If no packets are shown the sender has not sent any weather packets the latest 10 day(s).
| Time | Temp. | Humidity | Pressure | Rain* | Wind** | Luminosity | Snow |
|---|---|---|---|---|---|---|---|
| 1778264553 | 15° C | 70% | 919.5 hPa | - | - | - | - |
| 1778263652 | 15.56° C | 68% | 919.4 hPa | - | - | - | - |
| 1778262751 | 16.11° C | 67% | 919.2 hPa | - | - | - | - |
| 1778261850 | 16.67° C | 66% | 919.3 hPa | - | - | - | - |
| 1778260949 | 17.22° C | 64% | 919.2 hPa | - | - | - | - |
| 1778260048 | 17.22° C | 62% | 919 hPa | - | - | - | - |
| 1778259148 | 18.33° C | 60% | 918.8 hPa | - | - | - | - |
| 1778258247 | 18.89° C | 60% | 918.7 hPa | - | - | - | - |
| 1778257346 | 18.89° C | 59% | 919 hPa | - | - | - | - |
| 1778256445 | 18.89° C | 59% | 918.8 hPa | - | - | - | - |
| 1778255545 | 19.44° C | 58% | 918.8 hPa | - | - | - | - |
| 1778254644 | 19.44° C | 58% | 918.8 hPa | - | - | - | - |
| 1778253743 | 20° C | 57% | 918.9 hPa | - | - | - | - |
| 1778252842 | 20.56° C | 56% | 919.1 hPa | - | - | - | - |
| 1778251941 | 19.44° C | 62% | 919.3 hPa | - | - | - | - |
| 1778251040 | 18.89° C | 63% | 919.4 hPa | - | - | - | - |
| 1778250140 | 18.89° C | 63% | 919.3 hPa | - | - | - | - |
| 1778249239 | 18.89° C | 61% | 919.6 hPa | - | - | - | - |
| 1778248339 | 18.89° C | 63% | 919.7 hPa | - | - | - | - |
| 1778247437 | 18.89° C | 62% | 919.8 hPa | - | - | - | - |
| 1778246536 | 20° C | 62% | 919.7 hPa | - | - | - | - |
| 1778245635 | 18.89° C | 64% | 919.8 hPa | - | - | - | - |
| 1778244734 | 20° C | 62% | 919.9 hPa | - | - | - | - |
| 1778243852 | 19.44° C | 64% | 920 hPa | - | - | - | - |
| 1778242951 | 17.78° C | 66% | 920.1 hPa | - | - | - | - |
* Rain since midnight (hover to see other rain measurements)
** Current wind speed in m/s (hover to see current wind gust speed)